createdAt,value
2023-04-18T00:00:26.718Z,67.75
2023-04-18T00:03:30.091Z,67.82
2023-04-18T00:06:32.811Z,67.06
2023-04-18T00:09:35.153Z,68.34
2023-04-18T00:12:37.592Z,68.34
2023-04-18T00:15:41.826Z,68.62
2023-04-18T00:18:44.108Z,68.22
2023-04-18T00:21:47.161Z,68.31
2023-04-18T00:24:50.185Z,68.02
2023-04-18T00:27:52.504Z,67.59
2023-04-18T00:30:54.989Z,67.83
2023-04-18T00:33:57.358Z,68.49
2023-04-18T00:36:59.773Z,67.50
2023-04-18T00:40:02.143Z,68.86
2023-04-18T00:43:04.731Z,68.52
2023-04-18T00:46:08.262Z,68.32
2023-04-18T00:49:11.619Z,68.68
2023-04-18T00:52:14.397Z,68.47
2023-04-18T00:55:16.906Z,69.13
2023-04-18T00:58:19.321Z,69.60
2023-04-18T01:01:22.344Z,69.65
2023-04-18T01:04:24.767Z,69.76
2023-04-18T01:07:27.085Z,69.36
2023-04-18T01:10:32.526Z,69.47
2023-04-18T01:13:34.808Z,68.90
2023-04-18T01:16:39.104Z,69.73
2023-04-18T01:19:41.433Z,69.23
2023-04-18T01:22:43.812Z,69.69
2023-04-18T01:25:47.222Z,70.07
2023-04-18T01:28:49.604Z,69.15
2023-04-18T01:31:52.351Z,69.03
2023-04-18T01:34:54.681Z,69.03
2023-04-18T01:37:57.422Z,68.40
2023-04-18T01:40:59.794Z,68.38
2023-04-18T01:44:02.386Z,67.60
2023-04-18T01:47:04.761Z,66.97
2023-04-18T01:50:08.908Z,67.34
2023-04-18T01:53:11.179Z,66.74
2023-04-18T01:56:13.570Z,67.04
2023-04-18T01:59:16.025Z,66.94
2023-04-18T02:02:18.698Z,67.47
2023-04-18T02:05:21.388Z,67.21
2023-04-18T02:08:23.720Z,66.94
2023-04-18T02:11:26.304Z,67.19
2023-04-18T02:14:31.743Z,67.07
2023-04-18T02:17:36.855Z,67.49
2023-04-18T02:20:39.353Z,66.00
2023-04-18T02:23:41.622Z,65.87
2023-04-18T02:26:44.403Z,66.60
2023-04-18T02:29:46.722Z,67.19
2023-04-18T02:32:53.207Z,67.44
2023-04-18T02:35:59.230Z,68.21
2023-04-18T02:39:01.496Z,68.55
2023-04-18T02:42:03.811Z,69.00
2023-04-18T02:45:07.336Z,69.64
2023-04-18T02:48:10.298Z,69.69
2023-04-18T02:51:12.719Z,70.05
2023-04-18T02:54:15.190Z,68.98
2023-04-18T02:57:28.214Z,70.83
2023-04-18T03:00:53.478Z,70.63
2023-04-18T03:04:16.082Z,70.79
2023-04-18T03:07:21.235Z,70.72
2023-04-18T03:10:25.723Z,70.18
2023-04-18T03:13:28.030Z,70.65
2023-04-18T03:16:32.324Z,69.65
2023-04-18T03:19:35.296Z,69.68
2023-04-18T03:22:41.933Z,67.24
2023-04-18T03:25:44.402Z,65.16
2023-04-18T03:28:46.846Z,63.92
2023-04-18T03:31:49.495Z,62.77
2023-04-18T03:34:51.868Z,62.29
2023-04-18T03:37:54.340Z,62.02
2023-04-18T03:41:02.901Z,62.31
2023-04-18T03:44:09.446Z,62.33
2023-04-18T03:47:14.756Z,62.32
2023-04-18T03:50:19.780Z,62.27
2023-04-18T03:53:23.184Z,61.26
2023-04-18T03:56:25.949Z,62.95
2023-04-18T03:59:31.000Z,63.74
2023-04-18T04:02:33.524Z,63.74
2023-04-18T04:05:36.158Z,64.74
2023-04-18T04:08:38.550Z,65.87
2023-04-18T04:11:41.324Z,65.40
2023-04-18T04:14:46.509Z,65.56
2023-04-18T04:17:50.811Z,67.17
2023-04-18T04:20:53.812Z,66.48
2023-04-18T04:24:09.995Z,66.57
2023-04-18T04:27:18.873Z,68.30
2023-04-18T04:30:22.307Z,68.58
2023-04-18T04:33:25.719Z,68.67
2023-04-18T04:36:30.694Z,68.24
2023-04-18T04:39:34.760Z,68.37
2023-04-18T04:43:03.261Z,67.81
2023-04-18T04:46:13.787Z,68.25
2023-04-18T04:49:17.905Z,68.38
2023-04-18T04:52:20.526Z,68.64
2023-04-18T04:55:22.904Z,68.05
2023-04-18T04:58:26.003Z,68.47
2023-04-18T05:01:57.571Z,68.50
2023-04-18T05:04:59.893Z,68.90
2023-04-18T05:08:02.876Z,68.79
2023-04-18T05:11:05.548Z,68.72
2023-04-18T05:14:07.865Z,69.03
2023-04-18T05:17:10.204Z,69.55
2023-04-18T05:20:12.648Z,69.04
2023-04-18T05:23:15.091Z,69.39
2023-04-18T05:26:18.827Z,69.46
2023-04-18T05:29:21.173Z,69.10
2023-04-18T05:32:23.585Z,69.61
2023-04-18T05:35:26.260Z,68.74
2023-04-18T05:38:28.528Z,68.30
2023-04-18T05:41:30.816Z,68.43
2023-04-18T05:44:33.382Z,67.00
2023-04-18T05:47:35.749Z,67.13
2023-04-18T05:50:38.107Z,66.53
2023-04-18T05:53:40.381Z,66.72
2023-04-18T05:56:42.753Z,66.37
2023-04-18T05:59:45.090Z,65.66
2023-04-18T06:02:47.478Z,66.59
2023-04-18T06:05:49.858Z,65.01
2023-04-18T06:08:52.169Z,65.73
2023-04-18T06:11:54.522Z,65.04
2023-04-18T06:14:56.825Z,65.34
2023-04-18T06:18:00.338Z,64.47
2023-04-18T06:21:02.663Z,65.24
2023-04-18T06:24:05.084Z,66.39
2023-04-18T06:27:12.725Z,65.87
2023-04-18T06:30:23.009Z,64.67
2023-04-18T06:33:25.351Z,65.99
2023-04-18T06:36:27.678Z,64.15
2023-04-18T06:39:30.352Z,63.51
2023-04-18T06:42:32.609Z,63.33
2023-04-18T06:45:35.623Z,64.95
2023-04-18T06:48:37.912Z,62.77
2023-04-18T06:51:40.183Z,62.96
2023-04-18T06:54:42.545Z,63.43
2023-04-18T06:57:44.864Z,60.83
2023-04-18T07:00:51.870Z,61.37
2023-04-18T07:03:54.309Z,58.70
2023-04-18T07:06:56.701Z,57.27
2023-04-18T07:09:59.224Z,57.54
2023-04-18T07:13:01.796Z,54.77
2023-04-18T07:16:05.740Z,56.67
2023-04-18T07:19:08.421Z,52.84
2023-04-18T07:22:10.941Z,54.64
2023-04-18T07:25:13.241Z,54.06
2023-04-18T07:28:15.632Z,54.16
2023-04-18T07:31:21.026Z,54.94
2023-04-18T07:34:23.480Z,53.78
2023-04-18T07:37:26.238Z,54.99
2023-04-18T07:40:28.546Z,54.79
2023-04-18T07:43:30.856Z,54.69
2023-04-18T07:46:34.595Z,54.19
2023-04-18T07:49:37.557Z,52.74
2023-04-18T07:52:39.896Z,51.81
2023-04-18T07:55:43.346Z,50.68
2023-04-18T07:58:45.669Z,50.89
2023-04-18T08:01:47.992Z,49.02
2023-04-18T08:04:52.413Z,51.06
2023-04-18T08:07:54.931Z,48.35
2023-04-18T08:10:57.356Z,48.14
2023-04-18T08:13:59.811Z,48.74
2023-04-18T08:17:02.155Z,47.76
2023-04-18T08:20:07.484Z,47.96
2023-04-18T08:23:12.312Z,47.66
2023-04-18T08:26:15.193Z,48.94
2023-04-18T08:29:17.695Z,46.91
2023-04-18T08:32:20.023Z,46.32
2023-04-18T08:35:22.495Z,45.22
2023-04-18T08:38:24.784Z,46.81
2023-04-18T08:41:28.786Z,44.47
2023-04-18T08:44:31.379Z,43.00
2023-04-18T08:47:35.406Z,41.68
2023-04-18T08:50:37.787Z,41.22
2023-04-18T08:53:42.134Z,42.41
2023-04-18T08:56:45.207Z,40.64
2023-04-18T08:59:49.002Z,41.17
2023-04-18T09:02:57.260Z,41.24
2023-04-18T09:06:08.427Z,43.32
2023-04-18T09:09:10.756Z,43.52
2023-04-18T09:12:15.531Z,42.96
2023-04-18T09:15:20.897Z,40.50
2023-04-18T09:18:24.256Z,42.04
2023-04-18T09:21:28.057Z,40.43
2023-04-18T09:24:32.065Z,41.35
2023-04-18T09:27:34.898Z,40.59
2023-04-18T09:30:39.454Z,42.00
2023-04-18T09:33:52.828Z,37.47
2023-04-18T09:37:12.064Z,37.64
2023-04-18T09:40:21.523Z,36.35
2023-04-18T09:43:26.855Z,39.10
2023-04-18T09:46:31.768Z,37.40
2023-04-18T09:49:34.157Z,37.34
2023-04-18T09:52:41.069Z,38.49
2023-04-18T09:55:43.509Z,36.01
2023-04-18T09:58:47.673Z,37.57
2023-04-18T10:01:50.875Z,37.93
2023-04-18T10:04:54.535Z,35.61
2023-04-18T10:07:57.019Z,36.43
2023-04-18T10:10:59.515Z,35.37
2023-04-18T10:14:13.774Z,36.59
2023-04-18T10:17:16.367Z,36.74
2023-04-18T10:20:20.496Z,35.20
2023-04-18T10:23:43.234Z,35.43
2023-04-18T10:26:47.115Z,36.16
2023-04-18T10:29:51.280Z,34.01
2023-04-18T10:32:55.661Z,34.27
2023-04-18T10:35:58.866Z,34.82
2023-04-18T10:39:01.163Z,34.07
2023-04-18T10:42:03.575Z,34.03
2023-04-18T10:45:26.817Z,33.44
2023-04-18T10:48:32.926Z,36.03
2023-04-18T10:51:35.486Z,35.65
2023-04-18T10:54:40.755Z,36.21
2023-04-18T10:57:45.831Z,35.78
2023-04-18T11:00:50.352Z,32.91
2023-04-18T11:03:53.683Z,33.28
2023-04-18T11:06:57.604Z,33.59
2023-04-18T11:10:01.953Z,34.44
2023-04-18T11:13:06.596Z,35.09
2023-04-18T11:16:09.151Z,35.44
2023-04-18T11:19:21.879Z,32.92
2023-04-18T11:22:24.201Z,35.07
2023-04-18T11:25:37.310Z,34.08
2023-04-18T11:28:41.874Z,34.16
2023-04-18T11:31:51.405Z,34.42
2023-04-18T11:34:54.924Z,32.99
2023-04-18T11:37:57.236Z,34.77
2023-04-18T11:41:02.677Z,31.72
2023-04-18T11:44:06.485Z,30.51
2023-04-18T11:47:34.041Z,30.83
2023-04-18T11:50:37.708Z,30.86
2023-04-18T11:53:40.032Z,31.95
2023-04-18T11:56:50.276Z,29.47
2023-04-18T11:59:53.246Z,31.18
2023-04-18T12:02:55.702Z,29.43
2023-04-18T12:06:00.494Z,28.06
2023-04-18T12:09:03.012Z,27.48
2023-04-18T12:12:06.431Z,28.96
2023-04-18T12:15:13.883Z,30.02
2023-04-18T12:18:19.938Z,28.91
2023-04-18T12:21:22.272Z,28.64
2023-04-18T12:24:25.283Z,30.03
2023-04-18T12:27:47.135Z,32.10
2023-04-18T12:30:49.405Z,31.27
2023-04-18T12:33:51.753Z,28.93
2023-04-18T12:36:54.271Z,27.14
2023-04-18T12:39:56.670Z,27.85
2023-04-18T12:42:59.757Z,28.55
2023-04-18T12:46:03.394Z,28.86
2023-04-18T12:49:05.717Z,28.84
2023-04-18T12:52:08.278Z,29.84
2023-04-18T12:55:11.960Z,28.39
2023-04-18T12:58:18.643Z,28.55
2023-04-18T13:01:21.247Z,29.25
2023-04-18T13:04:23.817Z,29.30
2023-04-18T13:07:26.379Z,29.67
2023-04-18T13:10:28.874Z,28.83
2023-04-18T13:13:31.200Z,28.58
2023-04-18T13:16:33.677Z,28.42
2023-04-18T13:19:36.037Z,28.85
2023-04-18T13:22:39.161Z,30.33
2023-04-18T13:25:41.505Z,29.28
2023-04-18T13:28:43.785Z,29.63
2023-04-18T13:31:46.197Z,29.44
2023-04-18T13:34:48.845Z,30.34
2023-04-18T13:37:51.166Z,30.38
2023-04-18T13:41:04.444Z,27.23
2023-04-18T13:44:13.591Z,28.51
2023-04-18T13:47:16.347Z,27.53
2023-04-18T13:50:19.333Z,27.25
2023-04-18T13:53:21.774Z,26.06
2023-04-18T13:56:24.425Z,26.57
2023-04-18T13:59:27.131Z,25.34
2023-04-18T14:02:29.752Z,24.36
2023-04-18T14:05:32.203Z,24.06
2023-04-18T14:08:34.647Z,24.70
2023-04-18T14:11:38.528Z,25.29
2023-04-18T14:14:41.189Z,25.26
2023-04-18T14:17:45.454Z,25.10
2023-04-18T14:20:48.759Z,25.87
2023-04-18T14:23:52.385Z,27.20
2023-04-18T14:26:54.885Z,27.83
2023-04-18T14:29:57.322Z,27.88
2023-04-18T14:32:59.765Z,27.98
2023-04-18T14:36:02.827Z,28.66
2023-04-18T14:39:05.669Z,29.19
2023-04-18T14:42:08.022Z,28.44
2023-04-18T14:45:11.747Z,29.10
2023-04-18T14:48:14.185Z,30.18
2023-04-18T14:51:16.935Z,29.73
2023-04-18T14:54:19.365Z,29.82
2023-04-18T14:57:21.804Z,30.33
2023-04-18T15:00:27.148Z,30.54
2023-04-18T15:03:29.702Z,29.85
2023-04-18T15:06:32.739Z,30.67
2023-04-18T15:09:38.734Z,30.85
2023-04-18T15:12:41.958Z,31.71
2023-04-18T15:15:51.625Z,30.82
2023-04-18T15:18:53.926Z,30.36
2023-04-18T15:21:56.398Z,31.50
2023-04-18T15:24:58.718Z,31.56
2023-04-18T15:28:01.086Z,31.89
2023-04-18T15:31:06.016Z,31.75
2023-04-18T15:34:08.413Z,32.48
2023-04-18T15:37:10.913Z,31.99
2023-04-18T15:40:16.292Z,32.77
2023-04-18T15:43:18.700Z,32.59
2023-04-18T15:46:21.090Z,33.11
2023-04-18T15:49:23.619Z,32.38
2023-04-18T15:52:26.053Z,32.36
2023-04-18T15:55:28.519Z,33.88
2023-04-18T15:58:33.902Z,33.02
2023-04-18T16:01:36.746Z,32.43
2023-04-18T16:04:39.181Z,33.60
2023-04-18T16:07:42.653Z,32.72
2023-04-18T16:10:45.124Z,32.53
2023-04-18T16:13:47.888Z,31.99
2023-04-18T16:17:00.504Z,32.50
2023-04-18T16:20:03.756Z,31.83
2023-04-18T16:23:06.285Z,32.81
2023-04-18T16:26:09.042Z,32.80
2023-04-18T16:29:11.380Z,32.67
2023-04-18T16:32:13.973Z,33.12
2023-04-18T16:35:16.403Z,32.88
2023-04-18T16:38:18.783Z,32.21
2023-04-18T16:41:21.066Z,31.97
2023-04-18T16:44:23.498Z,31.71
2023-04-18T16:47:26.053Z,33.97
2023-04-18T16:50:28.409Z,32.09
2023-04-18T16:53:30.823Z,33.25
2023-04-18T16:56:34.118Z,32.27
2023-04-18T16:59:36.641Z,33.43
2023-04-18T17:02:42.922Z,33.14
2023-04-18T17:05:46.479Z,33.39
2023-04-18T17:08:49.204Z,33.31
2023-04-18T17:11:51.607Z,34.50
2023-04-18T17:14:53.926Z,35.16
2023-04-18T17:18:01.412Z,35.60
2023-04-18T17:21:04.092Z,35.63
2023-04-18T17:24:07.228Z,36.39
2023-04-18T17:30:32.120Z,35.82
2023-04-18T17:33:34.643Z,36.57
2023-04-18T17:36:38.846Z,35.78
2023-04-18T17:39:41.901Z,36.50
2023-04-18T17:42:44.492Z,36.51
2023-04-18T17:45:47.125Z,35.70
2023-04-18T17:48:49.772Z,36.23
2023-04-18T17:51:52.672Z,36.77
2023-04-18T17:54:57.216Z,37.60
2023-04-18T17:57:59.764Z,37.98
2023-04-18T18:01:02.362Z,38.48
2023-04-18T18:04:07.526Z,39.03
2023-04-18T18:07:13.298Z,37.40
2023-04-18T18:10:41.067Z,36.88
2023-04-18T18:13:50.937Z,38.63
2023-04-18T18:17:03.437Z,38.94
2023-04-18T18:20:15.321Z,38.68
2023-04-18T18:23:18.779Z,38.53
2023-04-18T18:26:21.477Z,38.29
2023-04-18T18:29:37.902Z,38.90
2023-04-18T18:32:40.759Z,40.68
2023-04-18T18:35:43.381Z,40.70
2023-04-18T18:39:48.137Z,40.10
2023-04-18T18:42:51.699Z,40.60
2023-04-18T18:45:54.306Z,42.23
2023-04-18T18:48:56.931Z,42.85
2023-04-18T18:51:59.480Z,42.09
2023-04-18T18:55:02.079Z,40.52
2023-04-18T18:58:07.924Z,40.88
2023-04-18T19:01:13.805Z,41.51
2023-04-18T19:04:16.606Z,39.46
2023-04-18T19:07:21.221Z,39.03
2023-04-18T19:10:25.990Z,39.86
2023-04-18T19:13:28.514Z,39.65
2023-04-18T19:16:30.958Z,39.96
2023-04-18T19:19:34.654Z,40.08
2023-04-18T19:22:38.035Z,39.77
2023-04-18T19:25:43.209Z,40.54
2023-04-18T19:28:48.089Z,42.44
2023-04-18T19:31:50.524Z,40.83
2023-04-18T19:34:52.966Z,39.73
2023-04-18T19:38:05.755Z,41.09
2023-04-18T19:41:18.954Z,40.89
2023-04-18T19:44:25.804Z,41.32
2023-04-18T19:47:32.253Z,41.43
2023-04-18T19:50:35.097Z,41.32
2023-04-18T19:53:37.485Z,40.60
2023-04-18T19:56:39.796Z,40.87
2023-04-18T19:59:42.291Z,40.51
2023-04-18T20:02:44.823Z,41.11
2023-04-18T20:05:47.330Z,40.62
2023-04-18T20:08:49.725Z,40.36
2023-04-18T20:11:54.356Z,40.05
2023-04-18T20:15:08.607Z,39.86
2023-04-18T20:18:14.988Z,40.56
2023-04-18T20:21:17.597Z,40.63
2023-04-18T20:24:21.176Z,40.53
2023-04-18T20:27:23.552Z,40.04
2023-04-18T20:30:26.505Z,40.09
2023-04-18T20:33:38.635Z,39.23
2023-04-18T20:36:53.240Z,39.80
2023-04-18T20:40:09.747Z,39.17
2023-04-18T20:43:12.753Z,38.62
2023-04-18T20:46:16.219Z,39.80
2023-04-18T20:49:18.663Z,37.79
2023-04-18T20:52:21.166Z,38.54
2023-04-18T20:55:23.464Z,39.03
2023-04-18T20:58:29.086Z,39.19
2023-04-18T21:01:32.880Z,39.12
2023-04-18T21:04:57.058Z,39.52
2023-04-18T21:08:08.852Z,40.29
2023-04-18T21:11:16.690Z,40.18
2023-04-18T21:14:22.965Z,41.78
2023-04-18T21:17:29.037Z,41.95
2023-04-18T21:20:45.697Z,40.86
2023-04-18T21:23:51.218Z,42.06
2023-04-18T21:27:07.975Z,41.41
2023-04-18T21:30:16.013Z,40.79
2023-04-18T21:36:50.330Z,40.56
2023-04-18T21:39:55.711Z,42.85
2023-04-18T21:43:12.176Z,42.76
2023-04-18T21:46:47.106Z,42.33
2023-04-18T21:50:11.403Z,42.02
2023-04-18T21:53:19.297Z,41.92
2023-04-18T21:56:31.505Z,42.36
2023-04-18T21:59:44.803Z,43.32
2023-04-18T22:06:08.411Z,42.86
2023-04-18T22:09:11.895Z,43.61
2023-04-18T22:12:14.430Z,44.17
2023-04-18T22:15:22.434Z,44.19
2023-04-18T22:18:28.494Z,43.21
2023-04-18T22:21:35.287Z,43.78
2023-04-18T22:24:47.372Z,42.88
2023-04-18T22:27:58.564Z,43.47
2023-04-18T22:31:06.875Z,44.31
2023-04-18T22:34:13.983Z,44.64
2023-04-18T22:37:21.627Z,42.92
2023-04-18T22:40:27.022Z,43.69
2023-04-18T22:43:35.260Z,44.70
2023-04-18T22:46:43.718Z,44.96
2023-04-18T22:53:05.905Z,44.55
2023-04-18T22:56:16.056Z,44.95
2023-04-18T22:59:32.490Z,44.61
2023-04-18T23:02:39.937Z,44.28
2023-04-18T23:05:47.204Z,45.06
2023-04-18T23:08:56.197Z,45.70
2023-04-18T23:12:00.924Z,43.48
2023-04-18T23:15:20.323Z,46.66
2023-04-18T23:18:30.451Z,45.22
2023-04-18T23:21:38.096Z,45.22
2023-04-18T23:24:45.106Z,45.65
2023-04-18T23:27:52.290Z,45.52
2023-04-18T23:30:59.069Z,45.11
2023-04-18T23:34:04.272Z,44.51
2023-04-18T23:37:06.588Z,44.59
2023-04-18T23:40:12.696Z,45.24
2023-04-18T23:46:58.341Z,44.13
2023-04-18T23:50:10.794Z,45.79
2023-04-18T23:53:16.593Z,46.46
2023-04-18T23:56:19.563Z,45.91
2023-04-18T23:59:25.163Z,44.42
